Time;durP1;ratioP1;P1;durP2;ratioP2;P2;SDS_P1;SDS_P2;PMS_P1;PMS_P2;Temp;Humidity;BMP_temperature;BMP_pressure;BME280_temperature;BME280_humidity;BME280_pressure;Samples;Min_cycle;Max_cycle;Signal;HPM_P1;HPM_P2
2021/10/31 00:00:58;;;;;;;20.27;11.30;;;;;;;16.84;38.58;100027.85;2277294;85;25734;-73
2021/10/31 00:04:19;;;;;;;18.55;11.25;;;;;;;16.82;38.65;100035.78;2276974;86;25722;-75
2021/10/31 00:07:40;;;;;;;15.20;10.88;;;;;;;16.78;38.70;100038.01;2277373;85;30859;-81
2021/10/31 00:11:02;;;;;;;17.87;11.85;;;;;;;16.75;38.74;100042.84;2277289;86;25773;-76
2021/10/31 00:14:23;;;;;;;17.35;11.55;;;;;;;16.74;38.78;100038.47;2276585;86;25692;-74
2021/10/31 00:17:44;;;;;;;18.62;10.63;;;;;;;16.71;38.79;100046.36;2301946;85;25973;-74
2021/10/31 00:21:05;;;;;;;19.62;12.95;;;;;;;16.68;38.86;100041.11;2304571;84;30844;-79
2021/10/31 00:24:27;;;;;;;14.15;11.60;;;;;;;16.66;38.91;100052.08;2305095;85;25699;-80
2021/10/31 00:27:47;;;;;;;20.20;12.40;;;;;;;16.65;38.94;100058.68;2304992;85;25655;-74
2021/10/31 00:31:10;;;;;;;17.20;11.43;;;;;;;16.62;38.95;100056.06;2304943;85;31365;-73
2021/10/31 00:34:32;;;;;;;14.05;10.95;;;;;;;16.59;39.00;100058.71;2304619;85;25790;-74
2021/10/31 00:37:53;;;;;;;20.35;11.97;;;;;;;16.57;39.00;100057.84;2304747;85;25596;-81
2021/10/31 00:41:14;;;;;;;15.20;11.12;;;;;;;16.55;39.05;100063.13;2304921;85;31509;-74
2021/10/31 00:44:35;;;;;;;19.90;12.23;;;;;;;16.52;39.06;100069.27;2304579;85;25642;-80
2021/10/31 00:47:56;;;;;;;14.53;10.80;;;;;;;16.48;39.14;100057.47;2304970;85;25707;-76
2021/10/31 00:51:18;;;;;;;22.55;11.10;;;;;;;16.43;39.16;100060.10;2305040;85;31331;-82
2021/10/31 00:54:39;;;;;;;14.80;10.50;;;;;;;16.40;39.25;100067.14;2276710;85;25811;-75
2021/10/31 00:58:00;;;;;;;16.20;11.22;;;;;;;16.39;39.27;100079.87;2228751;88;26771;-74
2021/10/31 01:01:21;;;;;;;22.93;12.47;;;;;;;16.35;39.28;100070.25;2228754;88;25862;-77
2021/10/31 01:04:53;;;;;;;14.40;11.10;;;;;;;16.32;39.39;100064.56;2252165;87;25651;-81
2021/10/31 01:08:41;;;;;;;19.85;11.78;;;;;;;16.31;39.40;100064.58;2267067;86;25615;-74
2021/10/31 01:12:13;;;;;;;16.17;11.40;;;;;;;16.26;39.46;100058.88;2267385;86;25807;-74
2021/10/31 01:16:14;;;;;;;15.80;11.30;;;;;;;16.25;39.51;100051.00;2266951;86;25886;-81
2021/10/31 01:20:20;;;;;;;18.70;12.15;;;;;;;16.22;39.55;100058.91;2267260;85;25638;-82
2021/10/31 01:24:18;;;;;;;21.48;12.65;;;;;;;16.20;39.61;100058.93;2265478;87;25647;-80
2021/10/31 01:27:57;;;;;;;14.63;11.43;;;;;;;16.16;39.70;100049.28;2267528;87;25623;-78
2021/10/31 01:31:38;;;;;;;16.27;11.68;;;;;;;16.11;39.71;100043.18;2242708;88;25233;-79
2021/10/31 01:35:17;;;;;;;16.23;11.93;;;;;;;16.08;39.79;100054.16;2238236;88;25757;-81
2021/10/31 01:39:21;;;;;;;17.42;12.00;;;;;;;16.04;39.81;100066.00;2232177;88;25745;-81
2021/10/31 01:42:56;;;;;;;17.80;11.53;;;;;;;16.00;39.90;100061.63;2241272;88;25746;-80
2021/10/31 01:46:28;;;;;;;14.98;10.60;;;;;;;15.92;39.92;100051.56;2242165;88;25725;-80
2021/10/31 01:50:32;;;;;;;16.73;11.12;;;;;;;15.95;39.99;100061.20;2240742;88;25685;-79
2021/10/31 01:53:59;;;;;;;22.75;13.30;;;;;;;15.94;40.01;100066.04;2242525;88;25852;-82
2021/10/31 01:57:23;;;;;;;19.37;12.05;;;;;;;15.89;40.04;100062.53;2242140;88;25722;-80
2021/10/31 02:00:47;;;;;;;18.32;10.98;;;;;;;15.86;40.09;100060.78;2242349;88;25977;-81
2021/10/31 02:04:12;;;;;;;17.90;12.15;;;;;;;15.82;40.11;100060.36;2242257;88;25735;-79
2021/10/31 02:07:40;;;;;;;17.30;11.28;;;;;;;15.79;40.15;100053.39;2250813;87;25631;-79
2021/10/31 02:11:03;;;;;;;18.70;11.90;;;;;;;15.77;40.19;100059.08;2267521;87;25479;-81
2021/10/31 02:14:25;;;;;;;11.93;10.25;;;;;;;15.75;40.23;100059.50;2267227;87;26078;-81
2021/10/31 02:17:54;;;;;;;16.93;12.10;;;;;;;15.72;40.22;100062.58;2239791;87;25746;-80
2021/10/31 02:21:19;;;;;;;16.00;10.03;;;;;;;15.68;40.33;100056.46;2259558;86;25759;-80
2021/10/31 02:24:41;;;;;;;16.40;11.83;;;;;;;15.68;40.36;100060.84;2258313;87;25664;-80
2021/10/31 02:28:03;;;;;;;16.10;11.57;;;;;;;15.65;40.41;100067.39;2259732;87;25688;-78
2021/10/31 02:31:26;;;;;;;16.15;11.70;;;;;;;15.64;40.44;100070.46;2259815;87;25653;-76
2021/10/31 02:34:48;;;;;;;15.65;11.40;;;;;;;15.61;40.42;100070.91;2259603;87;25787;-78
2021/10/31 02:38:10;;;;;;;16.62;11.85;;;;;;;15.58;40.56;100066.52;2259858;87;25712;-78
2021/10/31 02:41:33;;;;;;;15.90;11.08;;;;;;;15.56;40.54;100066.98;2259810;87;25705;-80
2021/10/31 02:44:54;;;;;;;15.38;10.50;;;;;;;15.53;40.65;100070.92;2259756;87;25730;-83
2021/10/31 02:48:17;;;;;;;15.63;10.65;;;;;;;15.50;40.68;100074.42;2259682;87;30972;-78
2021/10/31 02:52:04;;;;;;;18.70;11.48;;;;;;;15.47;40.74;100066.55;2259699;87;25724;-81
2021/10/31 02:55:48;;;;;;;19.15;10.72;;;;;;;15.44;40.77;100075.74;2260116;87;25194;-81
2021/10/31 02:59:20;;;;;;;17.55;11.60;;;;;;;15.42;40.84;100072.67;2221735;89;25689;-76
2021/10/31 03:02:43;;;;;;;19.00;11.15;;;;;;;15.40;40.86;100077.07;2221756;89;25800;-80
2021/10/31 03:06:05;;;;;;;13.78;10.05;;;;;;;15.35;40.91;100068.77;2225655;88;25873;-78
2021/10/31 03:09:29;;;;;;;20.95;11.18;;;;;;;15.33;40.97;100082.33;2229072;88;25720;-77
2021/10/31 03:12:51;;;;;;;15.85;11.60;;;;;;;15.32;41.02;100084.52;2228529;88;25235;-83
2021/10/31 03:16:13;;;;;;;13.40;10.63;;;;;;;15.30;41.04;100082.33;2224584;88;25708;-81
2021/10/31 03:19:40;;;;;;;15.88;11.05;;;;;;;15.27;41.08;100087.58;2210596;88;26519;-79
2021/10/31 03:22:58;;;;;;;14.45;11.05;;;;;;;15.22;41.13;100080.16;2209697;89;25968;-75
2021/10/31 03:26:19;;;;;;;12.98;11.00;;;;;;;15.19;41.19;100080.15;2210959;89;30915;-75
2021/10/31 03:29:40;;;;;;;17.12;11.57;;;;;;;15.18;41.21;100086.70;2210865;89;25809;-76
2021/10/31 03:33:02;;;;;;;16.23;11.45;;;;;;;15.16;41.23;100089.78;2210847;89;25701;-75
2021/10/31 03:36:23;;;;;;;11.85;10.65;;;;;;;15.14;41.29;100090.20;2230497;88;25813;-76
2021/10/31 03:39:44;;;;;;;17.30;11.68;;;;;;;15.11;41.32;100084.50;2240498;88;25725;-76
2021/10/31 03:43:05;;;;;;;15.35;11.83;;;;;;;14.97;41.42;100066.12;2240478;88;31343;-79
2021/10/31 03:46:26;;;;;;;15.98;11.10;;;;;;;15.03;41.43;100088.89;2240028;87;30839;-77
2021/10/31 03:49:48;;;;;;;16.65;10.93;;;;;;;14.99;41.48;100088.02;2240351;87;25729;-77
2021/10/31 03:53:08;;;;;;;16.05;10.85;;;;;;;14.98;41.53;100091.93;2240510;88;25777;-76
2021/10/31 03:56:30;;;;;;;11.90;10.25;;;;;;;14.95;41.60;100090.61;2240659;87;30910;-75
2021/10/31 03:59:50;;;;;;;14.93;10.90;;;;;;;14.87;41.20;100089.30;2240424;88;25724;-76
2021/10/31 04:03:12;;;;;;;14.78;10.85;;;;;;;14.88;41.67;100090.63;2240559;87;30902;-74
2021/10/31 04:06:33;;;;;;;13.93;11.57;;;;;;;14.84;41.75;100099.34;2240560;87;25761;-74
2021/10/31 04:09:53;;;;;;;14.58;11.60;;;;;;;14.81;41.75;100092.78;2240609;88;30994;-74
2021/10/31 04:13:14;;;;;;;13.70;10.63;;;;;;;14.81;41.83;100111.59;2240699;88;30833;-72
2021/10/31 04:16:36;;;;;;;18.20;11.18;;;;;;;14.76;41.87;100103.72;2244483;87;25728;-73
2021/10/31 04:19:57;;;;;;;15.78;10.90;;;;;;;14.76;41.90;100105.47;2267248;85;25643;-80
2021/10/31 04:23:18;;;;;;;13.78;11.50;;;;;;;14.73;41.99;100109.40;2267595;87;31296;-82
2021/10/31 04:26:39;;;;;;;19.02;11.28;;;;;;;14.72;42.02;100112.91;2267529;87;25676;-75
2021/10/31 04:30:00;;;;;;;21.40;11.55;;;;;;;14.67;42.05;100105.45;2267766;87;30798;-74
2021/10/31 04:33:21;;;;;;;16.50;11.30;;;;;;;14.63;42.10;100104.13;2267427;87;25651;-80
2021/10/31 04:36:43;;;;;;;16.27;11.68;;;;;;;14.59;42.18;100101.05;2266428;87;31005;-77
2021/10/31 04:40:11;;;;;;;15.20;11.38;;;;;;;14.58;42.24;100110.25;2266686;87;25589;-76
2021/10/31 04:43:32;;;;;;;16.50;11.18;;;;;;;14.56;42.28;100110.66;2267581;86;25646;-73
2021/10/31 04:46:53;;;;;;;15.10;11.03;;;;;;;14.52;42.34;100107.16;2267195;87;31294;-73
2021/10/31 04:50:13;;;;;;;15.32;10.98;;;;;;;14.49;42.41;100107.55;2267643;87;31513;-72
2021/10/31 04:53:35;;;;;;;17.75;11.60;;;;;;;14.47;42.43;100104.91;2267055;87;25637;-73
2021/10/31 04:56:56;;;;;;;15.45;10.95;;;;;;;14.45;42.50;100103.17;2267529;87;30885;-73
2021/10/31 05:00:17;;;;;;;13.30;10.50;;;;;;;14.43;42.54;100100.53;2267418;87;30938;-73
2021/10/31 05:03:38;;;;;;;16.73;11.75;;;;;;;14.39;42.58;100106.20;2267351;87;25216;-81
2021/10/31 05:06:59;;;;;;;16.75;11.88;;;;;;;14.38;42.62;100102.28;2267479;87;31418;-80
2021/10/31 05:10:32;;;;;;;13.15;11.28;;;;;;;14.36;42.68;100107.50;2267357;87;30813;-82
2021/10/31 05:13:53;;;;;;;15.35;10.93;;;;;;;14.35;42.69;100114.94;2267666;87;26319;-81
2021/10/31 05:17:14;;;;;;;15.48;10.95;;;;;;;14.34;42.76;100112.29;2259403;86;31119;-73
2021/10/31 05:20:36;;;;;;;16.85;11.03;;;;;;;14.32;42.79;100110.12;2204767;88;25669;-80
2021/10/31 05:23:57;;;;;;;13.25;10.60;;;;;;;14.30;42.82;100117.09;2204845;89;25734;-74
2021/10/31 05:27:18;;;;;;;15.40;12.10;;;;;;;14.28;42.85;100110.98;2225539;86;30875;-80
2021/10/31 05:30:39;;;;;;;16.37;11.90;;;;;;;14.25;42.90;100118.39;2240450;88;25865;-74
2021/10/31 05:34:00;;;;;;;14.75;10.75;;;;;;;14.24;42.94;100115.34;2240318;88;25687;-77
2021/10/31 05:37:21;;;;;;;18.37;11.53;;;;;;;14.21;42.99;100114.41;2238950;87;31677;-82
2021/10/31 05:40:42;;;;;;;18.00;11.85;;;;;;;14.21;43.04;100119.66;2240783;88;31401;-77
2021/10/31 05:44:03;;;;;;;16.12;11.68;;;;;;;14.19;43.06;100119.67;2240473;88;25677;-82
2021/10/31 05:47:25;;;;;;;16.50;12.37;;;;;;;14.17;43.13;100111.81;2240379;88;25277;-78
2021/10/31 05:50:56;;;;;;;15.20;11.45;;;;;;;14.18;43.13;100111.37;2240168;88;25881;-82
2021/10/31 05:54:20;;;;;;;15.10;12.15;;;;;;;14.17;43.15;100107.88;2236721;88;25729;-76
2021/10/31 05:58:01;;;;;;;17.10;11.88;;;;;;;14.15;43.17;100104.80;2237073;88;25848;-82
2021/10/31 06:01:26;;;;;;;15.85;11.55;;;;;;;14.15;43.23;100110.91;2237503;88;25892;-75
2021/10/31 06:04:47;;;;;;;17.45;11.75;;;;;;;14.15;43.24;100113.53;2237096;88;25788;-82
2021/10/31 06:08:13;;;;;;;13.90;11.12;;;;;;;14.18;43.25;100123.17;2239743;88;25205;-77
2021/10/31 06:11:34;;;;;;;16.55;10.55;;;;;;;14.07;43.25;100092.98;2239670;87;25741;-82
2021/10/31 06:18:33;;;;;;;11.63;10.32;;;;;;;14.25;43.28;100120.14;2061285;94;25318;-83
2021/10/31 06:21:54;;;;;;;12.73;10.23;;;;;;;14.27;43.25;100121.87;2064238;94;25706;-76
2021/10/31 06:25:15;;;;;;;15.48;10.72;;;;;;;14.31;43.27;100130.62;2063814;95;31379;-82
2021/10/31 06:28:36;;;;;;;16.75;11.28;;;;;;;14.28;43.24;100117.09;2064212;94;25744;-82
2021/10/31 06:31:57;;;;;;;17.82;11.57;;;;;;;14.40;43.21;100138.55;2064440;95;31370;-79
2021/10/31 06:35:19;;;;;;;15.55;10.85;;;;;;;14.55;43.23;100142.59;2064353;94;26551;-80
2021/10/31 06:38:40;;;;;;;19.45;10.63;;;;;;;14.55;43.23;100142.59;2064650;94;25844;-81
2021/10/31 06:42:01;;;;;;;18.32;11.30;;;;;;;14.59;43.07;100150.91;2064624;94;30931;-81
2021/10/31 06:45:22;;;;;;;12.90;10.45;;;;;;;14.56;43.16;100120.72;2064361;94;25743;-81
2021/10/31 06:48:43;;;;;;;18.52;10.28;;;;;;;14.56;43.16;100120.72;2064089;94;25787;-80
2021/10/31 06:52:05;;;;;;;11.55;10.35;;;;;;;14.75;43.00;100153.15;2063881;94;25778;-79
2021/10/31 06:55:26;;;;;;;12.95;9.73;;;;;;;14.74;43.24;100126.45;2144977;88;25862;-80
2021/10/31 06:58:47;;;;;;;14.87;10.28;;;;;;;14.96;42.81;100156.70;2240614;88;25688;-81
2021/10/31 07:02:08;;;;;;;24.23;11.00;;;;;;;14.96;42.81;100156.70;2239823;87;25724;-77
2021/10/31 07:05:29;;;;;;;12.73;9.90;;;;;;;15.02;42.88;100159.34;2240563;88;31416;-79
2021/10/31 07:08:53;;;;;;;12.35;9.90;;;;;;;15.07;42.81;100151.02;2240414;87;25713;-79
2021/10/31 07:12:15;;;;;;;15.10;10.88;;;;;;;15.11;42.78;100165.89;2240836;88;25727;-81
2021/10/31 07:15:44;;;;;;;13.93;10.18;;;;;;;15.16;42.72;100158.92;2240471;88;25652;-84
2021/10/31 07:19:03;;;;;;;14.23;10.10;;;;;;;15.23;42.70;100174.25;2239474;87;25680;-78
2021/10/31 07:22:24;;;;;;;16.93;10.40;;;;;;;15.29;42.61;100155.87;2248145;86;25631;-76
2021/10/31 07:25:45;;;;;;;14.90;10.13;;;;;;;15.36;42.70;100168.13;2256661;86;31330;-82
2021/10/31 07:29:07;;;;;;;17.03;10.50;;;;;;;15.42;42.61;100175.13;2255297;86;26798;-82
2021/10/31 07:32:29;;;;;;;11.78;9.60;;;;;;;15.49;42.57;100171.20;2256342;86;25874;-85
2021/10/31 07:35:50;;;;;;;11.85;10.38;;;;;;;15.60;42.49;100160.69;2261060;86;31422;-81
2021/10/31 07:39:12;;;;;;;14.63;11.05;;;;;;;15.91;42.51;100170.77;2244647;86;25719;-83
2021/10/31 07:42:33;;;;;;;13.40;10.93;;;;;;;18.59;40.89;100179.93;2256406;86;25645;-84
2021/10/31 07:45:55;;;;;;;12.95;11.75;;;;;;;21.37;37.89;100177.23;2237218;86;25251;-81
2021/10/31 07:49:16;;;;;;;14.70;13.32;;;;;;;23.71;35.03;100185.64;2243180;86;25825;-79
2021/10/31 07:52:45;;;;;;;15.00;13.80;;;;;;;25.73;32.59;100196.72;2241534;86;26453;-85
2021/10/31 07:56:16;;;;;;;18.35;16.77;;;;;;;27.49;30.41;100207.48;2238608;88;26467;-82
2021/10/31 07:59:35;;;;;;;31.02;28.75;;;;;;;29.20;28.56;100214.22;2239727;87;25664;-78
2021/10/31 08:02:57;;;;;;;35.45;32.95;;;;;;;30.72;26.92;100211.47;2239556;87;25709;-79
2021/10/31 08:06:18;;;;;;;26.55;24.18;;;;;;;31.54;23.94;100214.34;2269654;86;25695;-78
2021/10/31 08:09:40;;;;;;;104.32;96.82;;;;;;;30.32;23.01;100212.59;2264268;86;25793;-80
2021/10/31 08:13:02;;;;;;;58.85;54.83;;;;;;;29.46;22.54;100216.73;2251353;86;25800;-74
2021/10/31 08:16:24;;;;;;;86.12;80.25;;;;;;;28.75;22.89;100212.22;2254702;86;26335;-79
2021/10/31 08:19:46;;;;;;;84.35;78.57;;;;;;;28.44;22.47;100199.13;2259473;85;25704;-72
2021/10/31 08:23:07;;;;;;;13.88;12.68;;;;;;;28.35;23.15;100203.59;2277447;85;25699;-80
2021/10/31 08:26:29;;;;;;;19.35;17.62;;;;;;;28.44;23.35;100209.86;2276989;86;25760;-73
2021/10/31 08:29:52;;;;;;;11.43;10.32;;;;;;;28.78;23.08;100214.74;2279471;85;25789;-72
2021/10/31 08:33:22;;;;;;;10.10;9.18;;;;;;;28.68;22.46;100213.03;2282571;86;25697;-73
2021/10/31 08:36:42;;;;;;;12.33;10.40;;;;;;;28.78;22.70;100209.38;2278732;86;25735;-73
2021/10/31 08:40:05;;;;;;;10.23;8.90;;;;;;;29.15;21.92;100211.78;2298214;86;25221;-80
2021/10/31 08:43:26;;;;;;;11.43;8.63;;;;;;;28.99;21.84;100212.23;2274930;85;25724;-72
2021/10/31 08:46:48;;;;;;;9.83;8.83;;;;;;;29.17;22.07;100215.25;2264327;87;25720;-78
2021/10/31 08:50:09;;;;;;;10.03;8.83;;;;;;;29.27;21.39;100225.48;2286909;86;25661;-73
2021/10/31 08:53:30;;;;;;;9.73;8.33;;;;;;;28.70;21.36;100212.00;2299252;85;25678;-81
2021/10/31 08:56:51;;;;;;;10.03;8.33;;;;;;;28.65;21.49;100207.38;2299492;85;25650;-73
2021/10/31 09:00:13;;;;;;;11.33;8.37;;;;;;;28.92;22.06;100202.31;2299407;85;25757;-80
2021/10/31 09:03:34;;;;;;;10.80;8.65;;;;;;;29.27;21.41;100208.89;2298061;86;26328;-76
2021/10/31 09:06:55;;;;;;;8.85;7.75;;;;;;;29.35;21.58;100203.94;2288410;85;25686;-74
2021/10/31 09:10:16;;;;;;;8.40;7.60;;;;;;;29.03;21.08;100207.59;2267137;86;25681;-81
2021/10/31 09:13:38;;;;;;;8.43;7.65;;;;;;;28.95;21.50;100206.14;2265145;86;25642;-79
2021/10/31 09:17:01;;;;;;;8.50;7.67;;;;;;;29.13;21.55;100206.98;2278526;86;25670;-80
2021/10/31 09:20:35;;;;;;;9.20;8.28;;;;;;;29.44;21.16;100207.06;2283737;85;25809;-80
2021/10/31 09:24:10;;;;;;;12.68;8.03;;;;;;;29.15;21.36;100206.41;2256897;86;25693;-81
2021/10/31 09:27:32;;;;;;;11.65;8.75;;;;;;;29.41;21.45;100202.73;2253681;86;25735;-81
2021/10/31 09:30:53;;;;;;;8.53;7.53;;;;;;;29.55;21.49;100200.59;2255660;86;25653;-79
2021/10/31 09:34:29;;;;;;;17.20;8.23;;;;;;;29.56;21.36;100187.05;2269574;86;25658;-76
2021/10/31 09:38:02;;;;;;;17.85;7.33;;;;;;;30.06;21.17;100181.87;2248954;86;25821;-78
2021/10/31 09:41:24;;;;;;;9.38;7.65;;;;;;;29.41;20.51;100194.19;2253281;86;25887;-75
2021/10/31 09:44:49;;;;;;;9.25;8.23;;;;;;;28.64;20.57;100180.63;2267091;86;25764;-80
2021/10/31 09:48:13;;;;;;;10.05;8.40;;;;;;;28.06;21.18;100174.32;2258719;86;25239;-79
2021/10/31 09:51:34;;;;;;;11.55;8.10;;;;;;;27.75;21.29;100176.73;2268749;86;26030;-77
2021/10/31 09:54:57;;;;;;;8.13;7.47;;;;;;;27.34;22.10;100173.45;2263580;86;43879;-79
2021/10/31 09:58:22;;;;;;;8.15;7.50;;;;;;;27.54;21.85;100164.44;2255843;86;25238;-77
2021/10/31 10:05:27;;;;;;;11.83;8.88;;;;;;;27.33;22.06;100191.77;2201835;89;26755;-75
2021/10/31 10:09:11;;;;;;;8.85;8.15;;;;;;;26.71;22.32;100163.05;2247096;86;25646;-74
2021/10/31 10:13:21;;;;;;;13.35;7.45;;;;;;;26.62;22.64;100162.13;2255979;86;25812;-79
2021/10/31 10:16:43;;;;;;;8.48;7.40;;;;;;;26.60;22.58;100164.02;2245931;86;25994;-74
2021/10/31 10:20:25;;;;;;;12.23;7.53;;;;;;;26.65;22.73;100156.64;2268621;84;25856;-77
2021/10/31 10:24:00;;;;;;;11.38;7.55;;;;;;;26.66;22.86;100158.84;2273531;86;25962;-75
2021/10/31 10:27:49;;;;;;;9.03;7.58;;;;;;;26.59;22.81;100155.14;2265726;85;25744;-78
2021/10/31 10:31:26;;;;;;;10.20;7.17;;;;;;;25.73;23.07;100153.14;2257255;86;25621;-80
2021/10/31 10:35:19;;;;;;;8.25;7.45;;;;;;;24.67;24.10;100146.25;2255639;87;25782;-78
2021/10/31 10:39:27;;;;;;;7.45;6.75;;;;;;;24.02;24.83;100135.72;2247157;86;26042;-77
2021/10/31 10:43:00;;;;;;;7.80;7.08;;;;;;;23.47;25.50;100130.95;2259316;87;26277;-74
2021/10/31 10:46:24;;;;;;;7.92;7.15;;;;;;;22.98;26.08;100128.58;2264411;87;25802;-77
2021/10/31 10:49:59;;;;;;;9.33;6.92;;;;;;;23.15;26.24;100124.48;2263119;87;25857;-78
2021/10/31 10:53:24;;;;;;;7.30;6.35;;;;;;;22.68;26.41;100125.47;2262374;87;25595;-74
2021/10/31 10:57:16;;;;;;;9.23;6.95;;;;;;;22.40;26.83;100112.55;2256341;87;25655;-78
2021/10/31 11:00:46;;;;;;;11.65;6.83;;;;;;;22.30;27.10;100114.20;2255459;86;25676;-76
2021/10/31 11:04:30;;;;;;;8.38;6.75;;;;;;;22.14;27.40;100110.64;2279256;86;25683;-80
2021/10/31 11:07:51;;;;;;;9.70;6.47;;;;;;;22.05;27.56;100117.53;2266089;85;25916;-78
2021/10/31 11:11:44;;;;;;;9.98;6.53;;;;;;;22.20;27.71;100108.74;2285681;86;25764;-77
2021/10/31 11:15:09;;;;;;;10.03;6.90;;;;;;;22.42;27.55;100107.67;2287256;85;25643;-75
2021/10/31 11:18:55;;;;;;;9.80;7.08;;;;;;;22.85;27.60;100100.14;2277637;85;25795;-78
2021/10/31 11:22:16;;;;;;;7.20;6.53;;;;;;;23.38;27.22;100094.01;2250964;85;25612;-78
2021/10/31 11:25:49;;;;;;;7.65;6.78;;;;;;;23.70;26.90;100100.94;2229070;86;25734;-76
2021/10/31 11:29:14;;;;;;;7.53;6.72;;;;;;;23.71;26.40;100095.14;2232576;86;25684;-79
2021/10/31 11:32:41;;;;;;;8.60;6.53;;;;;;;23.60;26.47;100095.49;2227834;88;25765;-79
2021/10/31 11:36:03;;;;;;;8.65;6.33;;;;;;;23.66;26.50;100083.74;2241959;86;25708;-78
2021/10/31 11:39:25;;;;;;;7.62;5.75;;;;;;;23.92;26.53;100085.52;2254719;86;25642;-75
2021/10/31 11:42:48;;;;;;;7.67;5.80;;;;;;;24.15;26.25;100085.55;2254125;86;26082;-78
2021/10/31 11:46:09;;;;;;;10.28;5.80;;;;;;;24.35;26.04;100090.60;2271960;86;26322;-78
2021/10/31 11:50:00;;;;;;;7.05;6.35;;;;;;;24.31;25.75;100083.19;2267302;85;25731;-76
2021/10/31 11:53:26;;;;;;;7.03;6.17;;;;;;;23.96;25.99;100069.40;2209111;88;25502;-74
2021/10/31 11:57:05;;;;;;;14.13;6.65;;;;;;;24.09;26.22;100075.58;2211001;88;26177;-79
2021/10/31 12:00:40;;;;;;;8.03;6.80;;;;;;;24.20;26.07;100070.75;2243413;86;25648;-79
2021/10/31 12:04:05;;;;;;;10.63;6.17;;;;;;;24.25;26.16;100057.64;2248379;86;25751;-79
2021/10/31 12:07:43;;;;;;;7.75;6.95;;;;;;;24.53;26.27;100053.94;2257754;86;25663;-78
2021/10/31 12:11:04;;;;;;;6.75;6.05;;;;;;;24.41;25.95;100053.97;2251773;86;26313;-76
2021/10/31 12:14:48;;;;;;;8.33;6.17;;;;;;;24.36;25.86;100044.37;2239522;87;25543;-79
2021/10/31 12:18:10;;;;;;;9.63;5.83;;;;;;;24.26;26.02;100043.38;2231880;88;25697;-76
2021/10/31 12:21:34;;;;;;;8.33;7.17;;;;;;;24.38;26.11;100035.40;2212504;87;26414;-73
2021/10/31 12:25:03;;;;;;;6.97;6.37;;;;;;;24.74;26.07;100026.45;2202588;89;25721;-73
2021/10/31 12:28:40;;;;;;;7.15;6.55;;;;;;;24.95;26.04;100034.03;2254874;85;25479;-74
2021/10/31 12:32:07;;;;;;;8.98;6.37;;;;;;;24.71;25.61;100009.25;2272054;86;25758;-75
2021/10/31 12:35:42;;;;;;;7.87;6.10;;;;;;;24.68;25.55;100025.83;2238666;86;25697;-74
2021/10/31 12:39:31;;;;;;;8.00;5.80;;;;;;;24.78;25.90;100025.86;2203864;89;25747;-73
2021/10/31 12:43:05;;;;;;;7.33;5.30;;;;;;;25.15;25.37;100023.03;2203924;89;25672;-79
2021/10/31 12:46:28;;;;;;;8.85;6.08;;;;;;;25.15;25.37;100023.03;2186618;89;25728;-73
2021/10/31 12:49:50;;;;;;;11.35;5.83;;;;;;;25.42;25.51;100019.66;2239963;86;25784;-74
2021/10/31 12:53:12;;;;;;;11.22;5.55;;;;;;;25.64;25.14;100021.76;2279806;85;25735;-73
2021/10/31 12:56:34;;;;;;;6.87;5.33;;;;;;;25.52;24.76;100018.31;2269098;86;25754;-74
2021/10/31 13:00:03;;;;;;;8.40;6.05;;;;;;;25.29;24.72;100018.45;2237121;87;25697;-78
2021/10/31 13:03:25;;;;;;;7.92;5.75;;;;;;;25.05;24.93;100007.85;2236914;87;25689;-74
2021/10/31 13:06:58;;;;;;;6.33;5.72;;;;;;;25.30;24.98;100013.03;2237098;88;25795;-77
2021/10/31 13:10:28;;;;;;;8.15;5.53;;;;;;;25.23;24.85;100002.22;2249995;86;26501;-75
2021/10/31 13:13:49;;;;;;;5.87;5.42;;;;;;;25.05;24.83;100001.19;2240265;87;25966;-79
2021/10/31 13:17:10;;;;;;;9.80;5.37;;;;;;;25.00;24.86;99988.97;2240519;88;25673;-79
2021/10/31 13:20:35;;;;;;;6.03;5.45;;;;;;;24.67;25.12;99991.65;2250305;87;25814;-73
2021/10/31 13:23:56;;;;;;;6.67;5.97;;;;;;;24.85;25.22;99991.34;2266316;87;25729;-79
2021/10/31 13:27:22;;;;;;;7.92;4.75;;;;;;;25.15;24.96;99992.36;2267186;87;25787;-73
2021/10/31 13:31:06;;;;;;;6.00;5.45;;;;;;;25.07;24.92;99993.09;2266677;87;25603;-73
2021/10/31 13:34:33;;;;;;;7.92;5.78;;;;;;;24.98;24.84;99987.71;2266813;87;25666;-74
2021/10/31 13:38:06;;;;;;;9.93;5.90;;;;;;;24.83;25.13;99986.53;2266393;87;25629;-78
2021/10/31 13:41:42;;;;;;;8.85;4.58;;;;;;;24.80;24.96;99985.32;2266821;87;25733;-74
2021/10/31 13:45:11;;;;;;;9.75;6.85;;;;;;;24.49;25.12;99992.38;2267243;87;25653;-73
2021/10/31 13:48:41;;;;;;;7.10;5.37;;;;;;;23.97;25.46;99991.25;2267504;87;25702;-72
2021/10/31 13:52:04;;;;;;;6.87;6.20;;;;;;;23.96;25.88;99988.63;2219802;88;25838;-79
2021/10/31 13:55:49;;;;;;;7.25;6.17;;;;;;;24.12;25.89;99994.25;2211897;88;25738;-78
2021/10/31 13:59:12;;;;;;;7.47;6.22;;;;;;;24.19;25.78;99990.41;2155812;90;25734;-76
2021/10/31 14:02:38;;;;;;;9.33;6.33;;;;;;;24.17;26.00;99983.83;2177862;89;25862;-78
2021/10/31 14:06:07;;;;;;;7.08;6.33;;;;;;;23.68;25.99;99980.34;2225139;88;25773;-74
2021/10/31 14:09:29;;;;;;;;;;;;;;;22.97;26.59;99981.06;2245528;88;25775;-77
2021/10/31 14:13:04;;;;;;;8.03;6.28;;;;;;;22.45;27.24;99974.31;2243150;88;25741;-76
2021/10/31 14:16:28;;;;;;;7.17;6.47;;;;;;;22.23;27.57;99978.55;2243073;88;25815;-77
2021/10/31 14:19:53;;;;;;;6.17;5.55;;;;;;;22.10;27.90;99978.00;2243306;86;25807;-74
2021/10/31 14:23:32;;;;;;;10.65;5.70;;;;;;;22.04;28.06;99976.43;2243201;88;25804;-77
2021/10/31 14:26:53;;;;;;;15.95;7.12;;;;;;;21.95;28.27;99975.36;2240242;88;25722;-73
2021/10/31 14:30:24;;;;;;;7.78;6.42;;;;;;;21.74;28.49;99972.89;2243204;88;25683;-78
2021/10/31 14:33:51;;;;;;;14.23;6.37;;;;;;;21.53;28.83;99970.82;2243322;88;25684;-77
2021/10/31 14:37:16;;;;;;;7.90;6.15;;;;;;;21.27;29.11;99966.22;2278916;86;25805;-76
2021/10/31 14:40:37;;;;;;;11.80;5.87;;;;;;;21.06;29.50;99961.91;2299471;85;25703;-76
2021/10/31 14:44:02;;;;;;;8.33;5.90;;;;;;;20.87;29.84;99961.50;2281292;86;25750;-77
2021/10/31 14:47:23;;;;;;;9.90;5.70;;;;;;;20.70;30.09;99961.92;2263680;87;25663;-76
2021/10/31 14:50:46;;;;;;;7.60;6.12;;;;;;;20.47;30.37;99954.95;2264463;87;25685;-78
2021/10/31 14:54:33;;;;;;;10.45;6.53;;;;;;;20.38;30.75;99957.34;2263683;87;25768;-74
2021/10/31 14:57:55;;;;;;;8.10;6.15;;;;;;;20.27;30.87;99958.06;2291741;86;25684;-76
2021/10/31 15:01:22;;;;;;;9.48;5.97;;;;;;;20.15;31.17;99961.87;2288840;85;25699;-78
2021/10/31 15:04:39;;;;;;;10.70;6.20;;;;;;;20.12;31.36;99961.94;2284355;85;25917;-77
2021/10/31 15:08:00;;;;;;;10.30;6.30;;;;;;;20.05;31.46;99961.66;2271034;86;25701;-75
2021/10/31 15:11:24;;;;;;;6.70;6.08;;;;;;;20.07;31.54;99964.25;2265336;86;25599;-74
2021/10/31 15:14:47;;;;;;;7.25;6.30;;;;;;;19.98;31.57;99958.69;2265390;87;25718;-76
2021/10/31 15:18:08;;;;;;;9.75;6.17;;;;;;;19.84;31.87;99960.77;2271538;86;25718;-80
2021/10/31 15:21:37;;;;;;;9.55;6.33;;;;;;;19.70;32.31;99968.53;2267593;84;25992;-78
2021/10/31 15:24:58;;;;;;;8.38;5.50;;;;;;;19.97;32.57;99965.77;2238007;88;25713;-80
2021/10/31 15:28:19;;;;;;;6.42;5.55;;;;;;;20.24;32.65;99966.06;2238438;88;25799;-79
2021/10/31 15:31:41;;;;;;;6.67;6.05;;;;;;;20.42;32.75;99965.66;2236852;88;25608;-76
2021/10/31 15:35:11;;;;;;;13.70;7.40;;;;;;;20.56;32.90;99971.98;2235231;87;25816;-81
2021/10/31 15:38:41;;;;;;;6.83;5.90;;;;;;;20.61;32.95;99964.78;2242833;86;25663;-77
2021/10/31 15:42:03;;;;;;;8.23;6.08;;;;;;;20.64;32.97;99966.03;2242043;86;25774;-76
2021/10/31 15:45:29;;;;;;;7.20;5.58;;;;;;;20.65;32.87;99960.28;2238047;88;25912;-82
2021/10/31 15:48:58;;;;;;;10.98;7.10;;;;;;;20.61;32.90;99955.52;2230054;88;25921;-81
2021/10/31 15:52:19;;;;;;;7.87;6.67;;;;;;;20.55;32.92;99959.62;2239019;88;25814;-77
2021/10/31 15:55:47;;;;;;;7.62;6.72;;;;;;;20.51;32.99;99964.13;2248609;86;25749;-82